Time;durP1;ratioP1;P1;durP2;ratioP2;P2;SDS_P1;SDS_P2;PMS_P1;PMS_P2;Temp;Humidity;BMP_temperature;BMP_pressure;BME280_temperature;BME280_humidity;BME280_pressure;Samples;Min_cycle;Max_cycle;Signal;HPM_P1;HPM_P2
2022/02/21 00:00:31;;;;;;;9.30;1.87;;;1.50;99.90;;;;;;6286146;28;20270;-72
2022/02/21 00:03:36;;;;;;;3.23;1.87;;;1.60;99.90;;;;;;6285973;28;20301;-72
2022/02/21 00:06:43;;;;;;;4.03;1.70;;;1.60;99.90;;;;;;6285988;28;20293;-72
2022/02/21 00:09:48;;;;;;;6.70;1.80;;;1.60;99.90;;;;;;6286220;28;20291;-72
2022/02/21 00:12:54;;;;;;;7.00;2.20;;;1.60;99.90;;;;;;6286287;28;20298;-72
2022/02/21 00:15:59;;;;;;;5.83;1.47;;;1.60;99.90;;;;;;6285815;28;20274;-72
2022/02/21 00:19:06;;;;;;;6.50;2.00;;;1.60;99.90;;;;;;6285622;28;20305;-72
2022/02/21 00:22:15;;;;;;;4.73;1.90;;;1.60;99.90;;;;;;6285984;28;20302;-72
2022/02/21 00:25:21;;;;;;;7.83;1.93;;;1.70;99.90;;;;;;6279366;28;20278;-73
2022/02/21 00:28:26;;;;;;;4.20;1.60;;;1.70;99.90;;;;;;6285513;28;20302;-72
2022/02/21 00:31:32;;;;;;;3.70;1.67;;;1.70;99.90;;;;;;6284629;28;20278;-72
2022/02/21 00:34:38;;;;;;;2.40;1.87;;;1.70;99.90;;;;;;6286007;28;20302;-72
2022/02/21 00:37:45;;;;;;;3.80;1.77;;;1.70;99.90;;;;;;6285752;28;20320;-72
2022/02/21 00:40:51;;;;;;;5.80;2.03;;;1.70;99.90;;;;;;6286350;28;20536;-73
2022/02/21 00:43:56;;;;;;;2.60;1.47;;;1.70;99.90;;;;;;6285865;28;20300;-72
2022/02/21 00:47:01;;;;;;;5.90;2.17;;;1.70;99.90;;;;;;6285991;28;20546;-72
2022/02/21 00:50:09;;;;;;;11.13;1.90;;;1.70;99.90;;;;;;6284563;28;20452;-73
2022/02/21 00:53:16;;;;;;;7.53;1.60;;;1.70;99.90;;;;;;6285956;28;20302;-72
2022/02/21 00:56:22;;;;;;;7.53;1.80;;;1.80;99.90;;;;;;6286226;28;20344;-72
2022/02/21 00:59:27;;;;;;;1.40;1.40;;;1.80;99.90;;;;;;6290231;28;20302;-73
2022/02/21 01:02:33;;;;;;;5.27;1.73;;;1.80;99.90;;;;;;6289778;28;20581;-72
2022/02/21 01:05:40;;;;;;;1.47;1.37;;;1.80;99.90;;;;;;6290191;28;20276;-71
2022/02/21 01:08:47;;;;;;;4.23;1.83;;;1.80;99.90;;;;;;6289101;28;20311;-72
2022/02/21 01:11:52;;;;;;;4.53;1.90;;;1.90;99.90;;;;;;6282163;28;20438;-72
2022/02/21 01:14:59;;;;;;;3.93;1.60;;;1.90;99.90;;;;;;6290033;28;20464;-71
2022/02/21 01:18:05;;;;;;;7.60;1.97;;;1.90;99.90;;;;;;6289531;28;20294;-72
2022/02/21 01:21:10;;;;;;;5.57;1.97;;;1.90;99.90;;;;;;6289624;28;20274;-71
2022/02/21 01:24:19;;;;;;;5.30;2.23;;;1.90;99.90;;;;;;6288966;28;20303;-72
2022/02/21 01:27:25;;;;;;;6.97;2.10;;;1.90;99.90;;;;;;6288545;28;20585;-73
2022/02/21 01:30:30;;;;;;;6.53;1.90;;;1.90;99.90;;;;;;6290174;28;20347;-72
2022/02/21 01:33:36;;;;;;;7.00;2.10;;;1.90;99.90;;;;;;6289038;28;20306;-73
2022/02/21 01:36:41;;;;;;;3.20;1.73;;;2.00;99.90;;;;;;6289852;28;20278;-71
2022/02/21 01:39:48;;;;;;;11.37;2.70;;;2.00;99.90;;;;;;6288555;28;20383;-72
2022/02/21 01:42:53;;;;;;;7.10;2.20;;;2.00;99.90;;;;;;6288409;28;20493;-72
2022/02/21 01:45:59;;;;;;;1.93;1.77;;;2.00;99.90;;;;;;6288763;28;20277;-72
2022/02/21 01:49:06;;;;;;;4.33;1.77;;;2.10;99.90;;;;;;6289014;28;20303;-72
2022/02/21 01:52:13;;;;;;;5.97;2.77;;;2.10;99.90;;;;;;6288248;28;20275;-72
2022/02/21 01:55:20;;;;;;;1.93;1.67;;;2.10;99.90;;;;;;6289689;28;20273;-72
2022/02/21 01:58:27;;;;;;;5.17;1.87;;;2.10;99.90;;;;;;6288600;28;20301;-72
2022/02/21 02:01:32;;;;;;;2.57;1.80;;;2.10;99.90;;;;;;6289121;28;20550;-72
2022/02/21 02:04:38;;;;;;;8.93;1.97;;;2.10;99.90;;;;;;6288246;28;20291;-72
2022/02/21 02:07:43;;;;;;;2.17;1.83;;;2.20;99.90;;;;;;6288248;28;20318;-73
2022/02/21 02:10:50;;;;;;;2.30;1.83;;;2.20;99.90;;;;;;6287621;28;20268;-72
2022/02/21 02:13:56;;;;;;;4.00;2.40;;;2.20;99.90;;;;;;6288266;28;20303;-72
2022/02/21 02:17:06;;;;;;;2.63;2.03;;;2.20;99.90;;;;;;6289142;28;20276;-72
2022/02/21 02:20:13;;;;;;;4.33;1.40;;;2.20;99.90;;;;;;6287222;28;20275;-73
2022/02/21 02:23:20;;;;;;;9.53;2.20;;;2.20;99.90;;;;;;6279682;28;20302;-72
2022/02/21 02:26:25;;;;;;;2.03;1.70;;;2.20;99.90;;;;;;6288226;28;20272;-72
2022/02/21 02:29:31;;;;;;;2.50;1.80;;;2.20;99.90;;;;;;6287627;28;20301;-72
2022/02/21 02:32:37;;;;;;;4.10;1.70;;;2.20;99.90;;;;;;6288180;28;20421;-72
2022/02/21 02:35:42;;;;;;;2.60;2.00;;;2.20;99.90;;;;;;6288293;28;20274;-74
2022/02/21 02:38:50;;;;;;;2.93;1.73;;;2.20;99.90;;;;;;6288419;28;20242;-71
2022/02/21 02:41:56;;;;;;;4.53;1.60;;;2.20;99.90;;;;;;6288161;28;20451;-72
2022/02/21 02:45:01;;;;;;;2.40;1.70;;;2.20;99.90;;;;;;6287197;28;20297;-72
2022/02/21 02:48:08;;;;;;;2.00;1.80;;;2.20;99.90;;;;;;6287744;28;20302;-71
2022/02/21 02:51:14;;;;;;;3.73;1.60;;;2.20;99.90;;;;;;6287187;28;20292;-71
2022/02/21 02:54:21;;;;;;;1.70;1.57;;;2.20;99.90;;;;;;6287083;28;20459;-71
2022/02/21 02:57:26;;;;;;;1.83;1.70;;;2.20;99.90;;;;;;6287084;28;20291;-72
2022/02/21 03:00:31;;;;;;;1.63;1.53;;;2.10;99.90;;;;;;6287429;28;20450;-72
2022/02/21 03:03:38;;;;;;;3.67;1.37;;;2.20;99.90;;;;;;6287011;28;20587;-72
2022/02/21 03:06:43;;;;;;;1.30;1.27;;;2.20;99.90;;;;;;6287045;28;20548;-72
2022/02/21 03:09:49;;;;;;;2.50;1.70;;;2.20;99.90;;;;;;6283530;28;20291;-72
2022/02/21 03:12:55;;;;;;;1.50;1.40;;;2.20;99.90;;;;;;6284036;28;20375;-72
2022/02/21 03:16:00;;;;;;;3.37;1.40;;;2.20;99.90;;;;;;6286820;28;20268;-74
2022/02/21 03:19:05;;;;;;;2.10;1.63;;;2.20;99.90;;;;;;6286251;28;20298;-72
2022/02/21 03:22:11;;;;;;;1.50;1.40;;;2.20;99.90;;;;;;6286799;28;20302;-74
2022/02/21 03:25:19;;;;;;;3.27;1.70;;;2.20;99.90;;;;;;6287116;28;20651;-73
2022/02/21 03:28:24;;;;;;;1.40;1.40;;;2.20;99.90;;;;;;6286185;28;20298;-73
2022/02/21 03:31:29;;;;;;;4.67;1.97;;;2.20;99.90;;;;;;6286250;28;20362;-73
2022/02/21 03:34:34;;;;;;;1.33;1.33;;;2.20;99.90;;;;;;6286183;28;20297;-73
2022/02/21 03:37:40;;;;;;;2.37;1.50;;;2.20;99.90;;;;;;6286345;28;20294;-73
2022/02/21 03:40:47;;;;;;;1.80;1.60;;;2.20;99.90;;;;;;6286200;28;20275;-73
2022/02/21 03:43:52;;;;;;;1.47;1.37;;;2.20;99.90;;;;;;6285988;28;20303;-73
2022/02/21 03:47:04;;;;;;;1.47;1.40;;;2.20;99.90;;;;;;6286302;28;20291;-73
2022/02/21 03:50:10;;;;;;;1.33;1.33;;;2.20;99.90;;;;;;6285158;28;20476;-73
2022/02/21 03:53:16;;;;;;;1.40;1.30;;;2.20;99.90;;;;;;6286323;28;20310;-73
2022/02/21 03:56:23;;;;;;;1.00;1.00;;;2.10;99.90;;;;;;6286269;28;20274;-74
2022/02/21 03:59:28;;;;;;;1.57;1.10;;;2.10;99.90;;;;;;6285924;28;20295;-73
2022/02/21 04:02:33;;;;;;;1.10;1.10;;;2.10;99.90;;;;;;6281367;28;20292;-73
2022/02/21 04:05:39;;;;;;;1.17;1.17;;;2.10;99.90;;;;;;6283153;28;20266;-73
2022/02/21 04:08:44;;;;;;;1.20;1.20;;;2.10;99.90;;;;;;6281222;28;20295;-72
2022/02/21 04:11:51;;;;;;;1.20;1.10;;;2.10;99.90;;;;;;6285712;28;20582;-73
2022/02/21 04:14:56;;;;;;;0.90;0.90;;;2.10;99.90;;;;;;6285925;28;20280;-73
2022/02/21 04:18:01;;;;;;;1.10;1.10;;;2.10;99.90;;;;;;6285461;28;20298;-73
2022/02/21 04:21:08;;;;;;;0.90;0.90;;;2.10;99.90;;;;;;6286155;28;20281;-70
2022/02/21 04:24:13;;;;;;;1.80;1.20;;;2.00;99.90;;;;;;6285414;28;20312;-72
2022/02/21 04:27:20;;;;;;;1.00;1.00;;;2.00;99.90;;;;;;6277447;28;20481;-72
2022/02/21 04:30:28;;;;;;;0.93;0.93;;;1.90;99.90;;;;;;6285641;28;20292;-72
2022/02/21 04:33:33;;;;;;;1.00;1.00;;;1.90;99.90;;;;;;6289888;28;20296;-72
2022/02/21 04:36:39;;;;;;;1.10;1.10;;;1.80;99.90;;;;;;6289719;28;20593;-71
2022/02/21 04:39:44;;;;;;;1.00;1.00;;;1.80;99.90;;;;;;6290778;28;20296;-72
2022/02/21 04:42:53;;;;;;;0.90;0.90;;;1.70;99.90;;;;;;6289858;28;20310;-71
2022/02/21 04:45:58;;;;;;;0.80;0.80;;;1.70;99.90;;;;;;6291048;28;20274;-72
2022/02/21 04:49:03;;;;;;;0.80;0.80;;;1.70;99.90;;;;;;6290253;28;20652;-72
2022/02/21 04:52:11;;;;;;;0.87;0.87;;;1.70;99.90;;;;;;6289908;28;20468;-72
2022/02/21 04:55:16;;;;;;;0.80;0.80;;;1.60;99.90;;;;;;6290804;28;20273;-72
2022/02/21 04:58:23;;;;;;;0.80;0.80;;;1.60;99.90;;;;;;6290494;28;20298;-72
2022/02/21 05:01:28;;;;;;;0.90;0.90;;;1.60;99.90;;;;;;6290102;28;20273;-73
2022/02/21 05:04:34;;;;;;;1.67;1.10;;;1.60;99.90;;;;;;6290054;28;20299;-73
2022/02/21 05:07:54;;;;;;;0.80;0.80;;;1.50;99.90;;;;;;6289693;28;20462;-73
2022/02/21 05:11:00;;;;;;;0.90;0.90;;;1.50;99.90;;;;;;6289652;28;20282;-72
2022/02/21 05:14:06;;;;;;;0.80;0.80;;;1.50;99.90;;;;;;6289169;28;20298;-73
2022/02/21 05:17:14;;;;;;;0.70;0.70;;;1.50;99.90;;;;;;6281345;28;20306;-73
2022/02/21 05:20:19;;;;;;;0.80;0.80;;;1.50;99.90;;;;;;6289260;28;20278;-73
2022/02/21 05:23:24;;;;;;;0.60;0.60;;;1.40;99.90;;;;;;6289279;28;20471;-72
2022/02/21 05:26:29;;;;;;;1.07;1.07;;;1.40;99.90;;;;;;6289204;28;20271;-72
2022/02/21 05:29:36;;;;;;;0.70;0.70;;;1.30;99.90;;;;;;6289487;28;20306;-73
2022/02/21 05:32:41;;;;;;;0.80;0.80;;;1.30;99.90;;;;;;6289125;28;20301;-73
2022/02/21 05:35:47;;;;;;;0.70;0.70;;;1.30;99.90;;;;;;6290101;28;20305;-72
2022/02/21 05:38:52;;;;;;;0.80;0.80;;;1.30;99.90;;;;;;6288954;28;20470;-72
2022/02/21 05:42:00;;;;;;;0.70;0.70;;;1.30;99.90;;;;;;6288035;28;20278;-73
2022/02/21 05:45:08;;;;;;;0.70;0.70;;;1.30;99.90;;;;;;6288475;28;20270;-73
2022/02/21 05:48:21;;;;;;;0.87;0.87;;;1.30;99.90;;;;;;6289243;28;20297;-73
2022/02/21 05:51:26;;;;;;;0.50;0.50;;;1.20;99.90;;;;;;6289421;28;20581;-73
2022/02/21 05:54:31;;;;;;;2.07;0.83;;;1.20;99.90;;;;;;6287802;28;20289;-72
2022/02/21 05:57:36;;;;;;;0.70;0.70;;;1.20;99.90;;;;;;6288964;28;20302;-72
2022/02/21 06:01:02;;;;;;;0.60;0.60;;;1.20;99.90;;;;;;6289036;28;20278;-72
2022/02/21 06:04:08;;;;;;;0.70;0.70;;;1.20;99.90;;;;;;6288085;28;20300;-72
2022/02/21 06:07:17;;;;;;;0.77;0.77;;;1.20;99.90;;;;;;6288014;28;20294;-72
2022/02/21 06:10:23;;;;;;;0.60;0.60;;;1.20;99.90;;;;;;6280568;28;20266;-72
2022/02/21 06:13:28;;;;;;;0.60;0.60;;;1.20;99.90;;;;;;6288282;28;20313;-72
2022/02/21 06:16:35;;;;;;;0.70;0.70;;;1.30;99.90;;;;;;6288508;28;20273;-73
2022/02/21 06:19:40;;;;;;;0.80;0.80;;;1.30;99.90;;;;;;6288103;28;20302;-74
2022/02/21 06:22:45;;;;;;;0.70;0.70;;;1.20;99.90;;;;;;6287658;28;20298;-73
2022/02/21 06:25:51;;;;;;;0.60;0.60;;;1.30;99.90;;;;;;6288115;28;20270;-73
2022/02/21 06:28:56;;;;;;;0.80;0.75;;;1.20;99.90;;;;;;6288022;28;20829;-74
2022/02/21 06:32:04;;;;;;;0.70;0.70;;;1.20;99.90;;;;;;6287490;28;20294;-73
2022/02/21 06:35:11;;;;;;;0.70;0.70;;;1.20;99.90;;;;;;6287353;28;21162;-73
2022/02/21 06:38:17;;;;;;;0.70;0.70;;;1.30;99.90;;;;;;6287538;28;20460;-72
2022/02/21 06:41:23;;;;;;;0.60;0.60;;;1.20;99.90;;;;;;6288032;28;20538;-71
2022/02/21 06:44:28;;;;;;;0.60;0.60;;;1.30;99.90;;;;;;6287766;28;20295;-73
2022/02/21 06:47:35;;;;;;;0.70;0.70;;;1.30;99.90;;;;;;6287244;28;20294;-72
2022/02/21 06:50:40;;;;;;;0.70;0.70;;;1.30;99.90;;;;;;6287342;28;20273;-72
2022/02/21 06:53:46;;;;;;;0.80;0.80;;;1.30;99.90;;;;;;6287343;28;20322;-72
2022/02/21 06:56:51;;;;;;;1.40;0.60;;;1.30;99.90;;;;;;6287556;28;20284;-71
2022/02/21 06:59:56;;;;;;;0.70;0.70;;;1.30;99.90;;;;;;6286195;28;20282;-72
2022/02/21 07:03:03;;;;;;;0.70;0.70;;;1.40;99.90;;;;;;6286868;28;20297;-72
2022/02/21 07:06:09;;;;;;;0.73;0.60;;;1.40;99.90;;;;;;6287046;28;20277;-73
2022/02/21 07:09:14;;;;;;;1.70;1.10;;;1.40;99.90;;;;;;6286867;28;20305;-73
2022/02/21 07:12:19;;;;;;;1.00;1.00;;;1.40;99.90;;;;;;6286907;28;20291;-73
2022/02/21 07:15:25;;;;;;;1.23;0.80;;;1.40;99.90;;;;;;6286845;28;20566;-73
2022/02/21 07:18:33;;;;;;;0.80;0.80;;;1.40;99.90;;;;;;6287442;28;20297;-73
2022/02/21 07:21:38;;;;;;;0.77;0.70;;;1.40;99.90;;;;;;6287343;28;20277;-73
2022/02/21 07:24:44;;;;;;;0.77;0.77;;;1.40;99.90;;;;;;6287008;28;20309;-70
2022/02/21 07:27:51;;;;;;;0.63;0.63;;;1.40;99.90;;;;;;6286575;28;20305;-70
2022/02/21 07:30:57;;;;;;;0.77;0.77;;;1.50;99.90;;;;;;6287283;28;20436;-73
2022/02/21 07:34:03;;;;;;;0.93;0.70;;;1.50;99.90;;;;;;6286638;28;20301;-72
2022/02/21 07:37:10;;;;;;;0.70;0.70;;;1.50;99.90;;;;;;6285881;28;20274;-73
2022/02/21 07:40:16;;;;;;;0.80;0.80;;;1.50;99.90;;;;;;6287061;28;20278;-72
2022/02/21 07:43:22;;;;;;;1.23;0.80;;;1.50;99.90;;;;;;6286257;28;20302;-72
2022/02/21 07:46:27;;;;;;;0.80;0.80;;;1.50;99.90;;;;;;6286212;28;20566;-73
2022/02/21 07:49:34;;;;;;;1.80;0.90;;;1.50;99.90;;;;;;6286814;28;20303;-72
2022/02/21 07:52:39;;;;;;;0.70;0.70;;;1.60;99.90;;;;;;6286354;28;20599;-72
2022/02/21 07:55:46;;;;;;;0.67;0.67;;;1.60;99.90;;;;;;6285786;28;20267;-73
2022/02/21 07:58:54;;;;;;;0.87;0.87;;;1.60;99.90;;;;;;6286014;28;20298;-72
2022/02/21 08:01:59;;;;;;;0.93;0.73;;;1.60;99.90;;;;;;6285265;28;20274;-73
2022/02/21 08:05:07;;;;;;;1.00;0.80;;;1.70;99.90;;;;;;6286311;28;20270;-72
2022/02/21 08:08:16;;;;;;;0.90;0.90;;;1.70;99.90;;;;;;6285064;28;20298;-72
2022/02/21 08:11:23;;;;;;;0.90;0.90;;;1.70;99.90;;;;;;6286255;28;20275;-72
2022/02/21 08:14:28;;;;;;;1.70;0.90;;;1.80;99.90;;;;;;6285205;28;20484;-72
2022/02/21 08:17:42;;;;;;;0.80;0.80;;;1.80;99.90;;;;;;6285049;28;20293;-72
2022/02/21 08:20:50;;;;;;;1.97;0.80;;;1.90;99.90;;;;;;6286714;28;20274;-72
2022/02/21 08:23:56;;;;;;;0.60;0.60;;;1.90;99.90;;;;;;6285852;28;20319;-72
2022/02/21 08:27:04;;;;;;;1.43;0.83;;;1.90;99.90;;;;;;6285014;28;20274;-73
2022/02/21 08:30:15;;;;;;;0.90;0.90;;;1.90;99.90;;;;;;6286454;28;20276;-72
2022/02/21 08:33:20;;;;;;;0.97;0.97;;;1.90;99.90;;;;;;6285580;28;20302;-72
2022/02/21 08:36:27;;;;;;;2.90;0.80;;;1.90;99.90;;;;;;6286353;28;20276;-72
2022/02/21 08:39:32;;;;;;;3.07;1.00;;;2.00;99.90;;;;;;6285300;28;20616;-72
2022/02/21 08:42:38;;;;;;;1.33;1.00;;;2.00;99.90;;;;;;6285189;28;20299;-73
2022/02/21 08:45:43;;;;;;;2.30;0.90;;;2.00;99.90;;;;;;6286310;28;20278;-72
2022/02/21 08:48:49;;;;;;;1.60;0.90;;;2.00;99.90;;;;;;6285441;28;20301;-72
2022/02/21 08:51:55;;;;;;;0.90;0.90;;;2.10;99.90;;;;;;6284588;28;20274;-73
2022/02/21 08:55:02;;;;;;;1.03;1.03;;;2.10;99.90;;;;;;6286006;28;20289;-73
2022/02/21 08:58:08;;;;;;;3.00;1.10;;;2.10;99.90;;;;;;6285147;28;20300;-72
2022/02/21 09:01:14;;;;;;;0.90;0.90;;;2.10;99.90;;;;;;6286315;28;20278;-73
2022/02/21 09:04:19;;;;;;;0.90;0.90;;;2.20;99.90;;;;;;6284846;28;20291;-73
2022/02/21 09:07:26;;;;;;;1.03;0.80;;;2.20;99.90;;;;;;6285285;28;20310;-73
2022/02/21 09:10:31;;;;;;;1.03;0.97;;;2.30;99.90;;;;;;6285645;28;20262;-73
2022/02/21 09:13:37;;;;;;;1.10;0.93;;;2.30;99.90;;;;;;6284847;28;20434;-72
2022/02/21 09:16:44;;;;;;;1.53;0.90;;;2.40;99.90;;;;;;6286283;28;20272;-72
2022/02/21 09:19:49;;;;;;;0.90;0.90;;;2.40;99.90;;;;;;6288834;28;20614;-73
2022/02/21 09:22:56;;;;;;;1.27;1.10;;;2.40;99.90;;;;;;6289792;28;20306;-72
2022/02/21 09:26:01;;;;;;;2.27;1.20;;;2.40;99.90;;;;;;6290597;28;20275;-72
2022/02/21 09:29:06;;;;;;;1.00;1.00;;;2.50;99.90;;;;;;6289005;28;20294;-73
2022/02/21 09:32:12;;;;;;;0.93;0.93;;;2.50;99.90;;;;;;6289411;28;20300;-73
2022/02/21 09:35:20;;;;;;;1.00;1.00;;;2.50;99.90;;;;;;6289905;28;20291;-72
2022/02/21 09:38:28;;;;;;;1.20;1.20;;;2.60;99.90;;;;;;6289424;28;20299;-72
2022/02/21 09:41:33;;;;;;;1.03;0.93;;;2.60;99.90;;;;;;6289424;28;20272;-72
2022/02/21 09:44:38;;;;;;;0.90;0.90;;;2.60;99.90;;;;;;6289341;28;20308;-72
2022/02/21 09:47:45;;;;;;;0.90;0.90;;;2.60;99.90;;;;;;6288325;28;20317;-73
2022/02/21 09:51:11;;;;;;;1.20;1.10;;;2.70;99.90;;;;;;6288945;28;20287;-72
2022/02/21 09:54:18;;;;;;;0.80;0.80;;;2.80;99.90;;;;;;6281012;28;20305;-72
2022/02/21 09:57:23;;;;;;;1.40;1.23;;;2.80;99.90;;;;;;6288954;28;20300;-72
2022/02/21 10:00:29;;;;;;;1.30;1.20;;;2.90;99.90;;;;;;6289567;28;20287;-72
2022/02/21 10:03:45;;;;;;;1.37;1.20;;;2.90;99.90;;;;;;6288175;28;20339;-72
2022/02/21 10:06:51;;;;;;;1.20;1.20;;;3.00;99.90;;;;;;6289236;28;20278;-72
2022/02/21 10:10:00;;;;;;;1.67;1.60;;;3.00;99.90;;;;;;6288352;28;20275;-72
2022/02/21 10:13:06;;;;;;;1.83;1.60;;;3.00;99.90;;;;;;6288312;28;20304;-72
2022/02/21 10:16:11;;;;;;;2.70;1.07;;;3.10;99.90;;;;;;6288040;28;20296;-72
2022/02/21 10:19:20;;;;;;;1.23;1.00;;;3.10;99.90;;;;;;6279560;28;20593;-73
2022/02/21 10:22:27;;;;;;;1.17;1.03;;;3.10;99.90;;;;;;6288051;28;20294;-72
2022/02/21 10:25:34;;;;;;;1.27;1.20;;;3.10;99.90;;;;;;6288037;28;20274;-72
2022/02/21 10:28:42;;;;;;;1.10;1.10;;;3.20;99.90;;;;;;6287800;28;20305;-72
2022/02/21 10:31:48;;;;;;;1.10;1.10;;;3.20;99.90;;;;;;6288148;28;20271;-72
2022/02/21 10:35:15;;;;;;;1.50;1.40;;;3.30;99.90;;;;;;6287810;28;20294;-72
2022/02/21 10:38:20;;;;;;;1.57;1.30;;;3.20;99.90;;;;;;6279943;28;20293;-72
2022/02/21 10:41:48;;;;;;;1.20;1.10;;;3.20;99.90;;;;;;6287665;28;20277;-72
2022/02/21 10:44:53;;;;;;;1.37;1.30;;;3.30;99.90;;;;;;6287614;28;20301;-72
2022/02/21 10:48:04;;;;;;;1.07;1.07;;;3.30;99.90;;;;;;6287256;28;20303;-72
2022/02/21 10:51:12;;;;;;;1.47;1.37;;;3.30;99.90;;;;;;6288050;28;20272;-72
2022/02/21 10:54:17;;;;;;;1.40;1.13;;;3.40;99.90;;;;;;6286925;28;20298;-73
2022/02/21 10:57:25;;;;;;;1.30;1.20;;;3.40;99.90;;;;;;6286495;28;20296;-73
2022/02/21 11:00:31;;;;;;;1.60;1.30;;;3.50;99.90;;;;;;6286864;28;20278;-72
2022/02/21 11:03:37;;;;;;;1.00;1.00;;;3.50;99.90;;;;;;6287166;28;20467;-72
2022/02/21 11:06:43;;;;;;;1.60;1.60;;;3.60;99.90;;;;;;6287467;28;20453;-72
2022/02/21 11:09:49;;;;;;;1.90;1.37;;;3.60;99.90;;;;;;6283103;28;20480;-72
2022/02/21 11:12:56;;;;;;;1.47;1.47;;;3.60;99.90;;;;;;6283686;28;20297;-72
2022/02/21 11:16:01;;;;;;;2.03;1.80;;;3.60;99.90;;;;;;6286613;28;20453;-72
2022/02/21 11:19:08;;;;;;;1.77;1.77;;;3.60;99.90;;;;;;6286381;28;20298;-72
2022/02/21 11:22:17;;;;;;;1.70;1.70;;;3.70;99.90;;;;;;6286708;28;20301;-73
2022/02/21 11:25:29;;;;;;;1.70;1.70;;;3.60;99.90;;;;;;6287097;28;20569;-72
2022/02/21 11:28:41;;;;;;;1.90;1.80;;;3.60;99.90;;;;;;6286250;28;20318;-72
2022/02/21 11:31:48;;;;;;;2.30;1.60;;;3.70;99.90;;;;;;6286932;28;20277;-71
2022/02/21 11:35:14;;;;;;;2.13;1.90;;;3.70;99.90;;;;;;6285856;28;20277;-72
2022/02/21 11:38:22;;;;;;;1.87;1.57;;;3.70;99.90;;;;;;6286309;28;20302;-73
2022/02/21 11:41:32;;;;;;;1.93;1.83;;;3.80;99.90;;;;;;6286269;28;20462;-73
2022/02/21 11:44:48;;;;;;;1.77;1.77;;;3.90;99.90;;;;;;6286793;28;20300;-74
2022/02/21 11:47:57;;;;;;;2.43;2.33;;;4.00;99.90;;;;;;6286284;28;20296;-74
2022/02/21 11:51:36;;;;;;;1.80;1.80;;;4.10;99.90;;;;;;6286278;28;20270;-73
2022/02/21 11:54:43;;;;;;;2.20;1.93;;;4.10;99.90;;;;;;6286642;28;20306;-73
2022/02/21 11:57:49;;;;;;;2.00;1.90;;;4.10;99.90;;;;;;6285899;28;20297;-74
2022/02/21 12:00:56;;;;;;;1.60;1.50;;;4.20;99.90;;;;;;6286905;28;20273;-73
2022/02/21 12:04:20;;;;;;;2.50;2.00;;;4.30;99.90;;;;;;6286250;28;20297;-73
2022/02/21 12:07:30;;;;;;;1.73;1.73;;;4.30;99.90;;;;;;6285618;28;20298;-73
2022/02/21 12:10:36;;;;;;;1.20;1.20;;;4.30;99.90;;;;;;6286706;28;20290;-73
2022/02/21 12:14:17;;;;;;;1.10;1.10;;;4.30;99.90;;;;;;6285503;28;20298;-74
2022/02/21 12:17:23;;;;;;;2.73;0.97;;;4.40;99.90;;;;;;6286009;28;20303;-73
2022/02/21 12:20:38;;;;;;;0.83;0.83;;;4.30;99.90;;;;;;6286720;28;20279;-73
2022/02/21 12:24:05;;;;;;;1.00;1.00;;;4.40;99.90;;;;;;6285553;28;20614;-73
2022/02/21 12:27:15;;;;;;;1.10;1.10;;;4.40;99.90;;;;;;6278494;28;20277;-73
2022/02/21 12:30:35;;;;;;;1.60;0.97;;;4.50;99.90;;;;;;6278100;28;20555;-73
2022/02/21 12:33:43;;;;;;;1.10;1.00;;;4.50;99.90;;;;;;6285349;28;20602;-73
2022/02/21 12:36:50;;;;;;;0.90;0.90;;;4.50;99.90;;;;;;6286404;28;20605;-73
2022/02/21 12:39:55;;;;;;;1.03;0.90;;;4.60;99.90;;;;;;6284970;28;20278;-73
2022/02/21 12:43:00;;;;;;;1.10;1.00;;;4.70;99.90;;;;;;6285619;28;20310;-73
2022/02/21 12:46:05;;;;;;;0.87;0.87;;;4.80;99.90;;;;;;6285474;28;20278;-73
2022/02/21 12:49:21;;;;;;;0.80;0.80;;;4.80;99.90;;;;;;6285420;28;20302;-73
2022/02/21 12:52:26;;;;;;;1.00;1.00;;;4.90;99.90;;;;;;6285962;28;20322;-73
2022/02/21 12:55:33;;;;;;;0.90;0.90;;;5.00;99.90;;;;;;6290183;28;20550;-73
2022/02/21 12:58:39;;;;;;;1.00;1.00;;;5.00;99.90;;;;;;6290462;28;20302;-73
2022/02/21 13:01:47;;;;;;;1.10;0.80;;;5.00;99.90;;;;;;6291018;28;20301;-74
2022/02/21 13:04:53;;;;;;;2.73;0.90;;;5.00;99.90;;;;;;6289473;28;20496;-73
2022/02/21 13:07:59;;;;;;;1.93;0.80;;;5.00;99.90;;;;;;6289444;28;20301;-73
2022/02/21 13:11:04;;;;;;;2.77;0.97;;;4.90;99.90;;;;;;6282294;28;20266;-73
2022/02/21 13:14:12;;;;;;;0.77;0.77;;;4.90;99.90;;;;;;6289977;28;20298;-73
2022/02/21 13:17:18;;;;;;;2.47;0.97;;;4.80;99.90;;;;;;6289307;28;20302;-74
2022/02/21 13:20:26;;;;;;;1.40;1.10;;;4.80;99.90;;;;;;6290018;28;20276;-73
2022/02/21 13:23:31;;;;;;;1.10;1.10;;;4.80;99.90;;;;;;6273218;28;20306;-73
2022/02/21 13:26:48;;;;;;;1.53;1.10;;;4.70;99.90;;;;;;6265443;28;20272;-73
2022/02/21 13:29:54;;;;;;;1.97;1.33;;;4.70;99.90;;;;;;6264904;28;20285;-72
2022/02/21 13:33:11;;;;;;;1.57;1.10;;;4.70;99.90;;;;;;6264422;28;20451;-74
2022/02/21 13:36:26;;;;;;;1.10;1.10;;;4.70;99.90;;;;;;6264738;28;20269;-72
2022/02/21 13:39:31;;;;;;;1.17;0.90;;;4.60;99.90;;;;;;6263773;28;20473;-72
2022/02/21 13:42:38;;;;;;;1.00;1.00;;;4.50;99.90;;;;;;6264226;28;20301;-72
2022/02/21 13:45:50;;;;;;;3.07;1.97;;;4.50;99.90;;;;;;6264857;28;20278;-72
2022/02/21 13:48:56;;;;;;;5.53;1.60;;;4.50;99.90;;;;;;6263781;28;20307;-72
2022/02/21 13:52:07;;;;;;;2.30;1.70;;;4.40;99.90;;;;;;6263800;28;20280;-72
2022/02/21 13:55:23;;;;;;;2.20;1.70;;;4.40;99.90;;;;;;6264233;28;20268;-72
2022/02/21 13:58:32;;;;;;;1.93;1.83;;;4.40;99.90;;;;;;6263847;28;20479;-72
2022/02/21 14:01:51;;;;;;;3.40;2.13;;;4.30;99.90;;;;;;6264342;28;20275;-72
2022/02/21 14:05:08;;;;;;;4.90;4.13;;;4.30;99.90;;;;;;6263615;28;20283;-72
2022/02/21 14:08:16;;;;;;;1.97;1.90;;;4.20;99.90;;;;;;6263821;28;20302;-73
2022/02/21 14:11:43;;;;;;;5.83;2.50;;;4.20;99.90;;;;;;6264035;28;20275;-73
2022/02/21 14:14:56;;;;;;;6.50;2.30;;;4.10;99.90;;;;;;6262427;28;20291;-73
2022/02/21 14:18:01;;;;;;;2.33;2.20;;;4.20;99.90;;;;;;6263209;28;20303;-73
2022/02/21 14:21:10;;;;;;;4.83;2.33;;;4.10;99.90;;;;;;6263229;28;20306;-73
2022/02/21 14:24:17;;;;;;;3.33;1.90;;;4.10;99.90;;;;;;6285102;28;20294;-73
2022/02/21 14:27:23;;;;;;;2.40;2.20;;;4.10;99.90;;;;;;6287520;28;20492;-73
2022/02/21 14:30:29;;;;;;;3.83;2.67;;;4.00;99.90;;;;;;6288424;28;20276;-73
2022/02/21 14:33:35;;;;;;;4.13;2.37;;;3.90;99.90;;;;;;6288297;28;20302;-73
2022/02/21 14:36:40;;;;;;;4.60;2.53;;;3.90;99.90;;;;;;6288533;28;20277;-72
2022/02/21 14:39:47;;;;;;;6.63;2.53;;;3.90;99.90;;;;;;6287294;28;20313;-73
2022/02/21 14:42:57;;;;;;;3.43;2.70;;;3.80;99.90;;;;;;6287546;28;20574;-73
2022/02/21 14:46:03;;;;;;;5.63;2.83;;;3.90;99.90;;;;;;6287742;28;20278;-73
2022/02/21 14:49:08;;;;;;;3.10;2.20;;;3.80;99.90;;;;;;6287382;28;20621;-72
2022/02/21 14:52:13;;;;;;;2.00;1.90;;;3.60;99.90;;;;;;6286770;28;20312;-72
2022/02/21 14:55:21;;;;;;;1.63;1.63;;;3.50;99.90;;;;;;6287849;28;20273;-72
2022/02/21 14:58:26;;;;;;;1.67;1.57;;;3.40;99.90;;;;;;6286727;28;20301;-72
2022/02/21 15:01:33;;;;;;;2.57;1.60;;;3.40;99.90;;;;;;6287642;28;20274;-72
2022/02/21 15:04:39;;;;;;;1.60;1.60;;;3.40;99.90;;;;;;6287093;28;20294;-72
2022/02/21 15:07:44;;;;;;;1.20;1.20;;;3.30;99.90;;;;;;6286808;28;20302;-72
2022/02/21 15:10:51;;;;;;;1.30;1.30;;;3.10;99.90;;;;;;6286639;28;20273;-72
2022/02/21 15:13:56;;;;;;;1.80;1.70;;;3.10;99.90;;;;;;6286979;28;20306;-72
2022/02/21 15:17:03;;;;;;;1.57;1.47;;;3.00;99.90;;;;;;6286428;28;20278;-73
2022/02/21 15:20:14;;;;;;;1.57;1.57;;;2.90;99.90;;;;;;6286855;28;20579;-72
2022/02/21 15:23:19;;;;;;;2.73;1.70;;;2.90;99.90;;;;;;6286633;28;20308;-72
2022/02/21 15:26:27;;;;;;;1.93;1.83;;;2.80;99.90;;;;;;6287033;28;20273;-71
2022/02/21 15:29:33;;;;;;;2.50;1.70;;;2.80;99.90;;;;;;6287331;28;20301;-71
2022/02/21 15:32:38;;;;;;;2.30;1.33;;;2.70;99.90;;;;;;6286434;28;20296;-72
2022/02/21 15:35:44;;;;;;;1.37;1.37;;;2.70;99.90;;;;;;6286381;28;20274;-72
2022/02/21 15:38:49;;;;;;;1.00;1.00;;;2.60;99.90;;;;;;6285777;28;20319;-72
2022/02/21 15:41:59;;;;;;;0.67;0.67;;;2.40;99.90;;;;;;6285901;28;20277;-72
2022/02/21 15:45:06;;;;;;;0.93;0.93;;;2.40;99.90;;;;;;6287102;28;20271;-73
2022/02/21 15:48:13;;;;;;;1.90;0.87;;;2.30;99.90;;;;;;6286591;28;20574;-72
2022/02/21 15:51:19;;;;;;;2.07;1.97;;;2.30;99.90;;;;;;6286789;28;20272;-73
2022/02/21 15:54:25;;;;;;;0.80;0.80;;;2.20;99.90;;;;;;6286933;28;20295;-73
2022/02/21 15:57:32;;;;;;;0.70;0.70;;;2.10;99.90;;;;;;6286152;28;20303;-73
2022/02/21 16:00:37;;;;;;;0.93;0.73;;;2.00;99.90;;;;;;6286631;28;20296;-72
2022/02/21 16:03:42;;;;;;;0.70;0.70;;;2.00;99.90;;;;;;6285845;28;20564;-72
2022/02/21 16:06:48;;;;;;;0.60;0.60;;;1.80;99.90;;;;;;6285445;28;20286;-72
2022/02/21 16:09:53;;;;;;;0.70;0.70;;;1.80;99.90;;;;;;6286302;28;20294;-72
2022/02/21 16:13:00;;;;;;;0.70;0.70;;;1.70;99.90;;;;;;6285610;28;20559;-72
2022/02/21 16:16:07;;;;;;;0.70;0.70;;;1.70;99.90;;;;;;6285689;28;20270;-72
2022/02/21 16:19:14;;;;;;;0.73;0.73;;;1.70;99.90;;;;;;6285134;28;20613;-73
2022/02/21 16:22:21;;;;;;;0.80;0.80;;;1.60;99.90;;;;;;6285687;28;20306;-72
2022/02/21 16:25:26;;;;;;;1.10;0.77;;;1.50;99.90;;;;;;6286567;28;20550;-72
2022/02/21 16:28:32;;;;;;;0.70;0.70;;;1.50;99.90;;;;;;6287578;28;20307;-72